Airport Name : Trapani Birgi

Other Name : Trapani Birgi

ICAO : LICT

IATA : TPS

FAA :

Latitude : 37.911403

Longitude : 12.487961

Country : Italy

Local Date and Time : 30 May 2024 07:49

 

TAF (Terminal Aerodrome Forecast)

TAF LICT 300500Z 3006/3015 34008KT 9999 FEW020

 

METAR (METeorological Aerodrome Report)

LICT 300455Z 05001KT 9999 FEW018 20/16 Q1011 RMK SCT SCT200 VIS MIN 9999 WIND THR13 01008KT BLU

LICT 300355Z 01003KT 9999 FEW018 20/16 Q1011 RMK SCT SCT200 VIS MIN 9999 WIND THR13 01007KT BLU

LICT 300255Z 36006KT 9999 FEW016 21/17 Q1011 RMK SCT SCT200 VIS MIN 9999 WIND THR13 02009KT BLU

LICT 300155Z 35006KT 9999 FEW018 21/17 Q1012 RMK SCT SCT200 VIS MIN 9999 WIND THR13 36008KT BLU